PWSweather.com
Personal Weather Stations
Station Observations
DW6359
Southwest Cambria, Cambria, WI 53923

Southwest CambriaCambria, WI 53923

Lat: 43.541194, Lon: -89.11275

Elevation: 945

Station Type: Davis Vantage Pro2

http://home.centurytel.net/weathercambria/wxcambria.html

High Low Average
Temperature 26.8°F-2.9°C 18.8°F-7.3°C 23.8°F-4.6°C
Dew Point 21.8°F-5.7°C 15.8°F-9.0°C 19.0°F-7.2°C
Winds 6.0 mph 9.7 kmh Calm Calm 1.0 mph SSW1.6 kmh SSW
Wind Gusts 9.0 mph14.5 kmh -- --
Humidity 88% 76% 82%
Pressure 30.40 in1029.5 mb 30.26 in1024.7 mb -
Precipitation 0.00 in0.0 mm - -
Hour Temp Dew Point Humidity Winds Wind Gusts Pressure Precip Precip Rate Daily Precip Total
12:00 AM 24.7°F-4.1°C 20.6°F-6.3°C 84% 5.0 mph NW8.0 kmh NW -- 30.25 in1024.4 mb 0.00 in0.0 mm 0.00 in0.0 mm 0.00 in0.0 mm
12:05 AM 24.7°F-4.1°C 20.6°F-6.3°C 84% 4.0 mph NW6.4 kmh NW -- 30.25 in1024.4 mb 0.00 in0.0 mm 0.00 in0.0 mm 0.00 in0.0 mm
12:10 AM 24.6°F-4.1°C 20.5°F-6.4°C 84% 4.0 mph NW6.4 kmh NW 7.0 mph11.3 kmh 30.25 in1024.4 mb 0.00 in0.0 mm 0.00 in0.0 mm 0.00 in0.0 mm
12:15 AM 24.7°F-4.1°C 20.6°F-6.3°C 84% 4.0 mph NW6.4 kmh NW 7.0 mph11.3 kmh 30.25 in1024.4 mb 0.00 in0.0 mm 0.00 in0.0 mm 0.00 in0.0 mm
12:20 AM 24.6°F-4.1°C 20.5°F-6.4°C 84% 6.0 mph NW9.7 kmh NW -- 30.25 in1024.4 mb 0.00 in0.0 mm 0.00 in0.0 mm 0.00 in0.0 mm
12:25 AM 24.7°F-4.1°C 20.6°F-6.3°C 84% 4.0 mph WNW6.4 kmh WNW -- 30.25 in1024.4 mb 0.00 in0.0 mm 0.00 in0.0 mm 0.00 in0.0 mm
12:30 AM 24.6°F-4.1°C 20.5°F-6.4°C 84% 4.0 mph NW6.4 kmh NW -- 30.26 in1024.7 mb 0.00 in0.0 mm 0.00 in0.0 mm 0.00 in0.0 mm
12:35 AM 24.7°F-4.1°C 20.6°F-6.3°C 84% Calm Calm -- 30.26 in1024.7 mb 0.00 in0.0 mm 0.00 in0.0 mm 0.00 in0.0 mm
12:40 AM 24.6°F-4.1°C 20.5°F-6.4°C 84% 5.0 mph NW8.0 kmh NW -- 30.26 in1024.7 mb 0.00 in0.0 mm 0.00 in0.0 mm 0.00 in0.0 mm
12:45 AM 24.7°F-4.1°C 20.6°F-6.3°C 84% 2.0 mph WNW3.2 kmh WNW -- 30.26 in1024.7 mb 0.00 in0.0 mm 0.00 in0.0 mm 0.00 in0.0 mm
12:50 AM 24.7°F-4.1°C 20.6°F-6.3°C 84% 3.0 mph NW4.8 kmh NW -- 30.26 in1024.7 mb 0.00 in0.0 mm 0.00 in0.0 mm 0.00 in0.0 mm
12:55 AM 24.7°F-4.1°C 20.3°F-6.5°C 83% 7.0 mph NW11.3 kmh NW -- 30.26 in1024.7 mb 0.00 in0.0 mm 0.00 in0.0 mm 0.00 in0.0 mm
01:00 AM 24.6°F-4.1°C 20.2°F-6.6°C 83% 3.0 mph NW4.8 kmh NW 9.0 mph14.5 kmh 30.26 in1024.7 mb 0.00 in0.0 mm 0.00 in0.0 mm 0.00 in0.0 mm
01:05 AM 24.6°F-4.1°C 20.2°F-6.6°C 83% 3.0 mph NW4.8 kmh NW 9.0 mph14.5 kmh 30.27 in1025.1 mb 0.00 in0.0 mm 0.00 in0.0 mm 0.00 in0.0 mm
01:10 AM 24.6°F-4.1°C 20.2°F-6.6°C 83% 5.0 mph NW8.0 kmh NW -- 30.27 in1025.1 mb 0.00 in0.0 mm 0.00 in0.0 mm 0.00 in0.0 mm
01:15 AM 24.6°F-4.1°C 20.2°F-6.6°C 83% 3.0 mph NW4.8 kmh NW -- 30.27 in1025.1 mb 0.00 in0.0 mm 0.00 in0.0 mm 0.00 in0.0 mm
01:20 AM 24.5°F-4.2°C 20.1°F-6.6°C 83% 3.0 mph NW4.8 kmh NW -- 30.27 in1025.1 mb 0.00 in0.0 mm 0.00 in0.0 mm 0.00 in0.0 mm
01:25 AM 24.4°F-4.2°C 20.0°F-6.7°C 83% 4.0 mph NW6.4 kmh NW -- 30.27 in1025.1 mb 0.00 in0.0 mm 0.00 in0.0 mm 0.00 in0.0 mm
01:30 AM 24.4°F-4.2°C 20.0°F-6.7°C 83% 6.0 mph NW9.7 kmh NW -- 30.27 in1025.1 mb 0.00 in0.0 mm 0.00 in0.0 mm 0.00 in0.0 mm
01:35 AM 24.3°F-4.3°C 19.9°F-6.7°C 83% 3.0 mph NW4.8 kmh NW -- 30.27 in1025.1 mb 0.00 in0.0 mm 0.00 in0.0 mm 0.00 in0.0 mm
01:40 AM 24.3°F-4.3°C 19.9°F-6.7°C 83% 5.0 mph N8.0 kmh N -- 30.27 in1025.1 mb 0.00 in0.0 mm 0.00 in0.0 mm 0.00 in0.0 mm
01:45 AM 24.3°F-4.3°C 19.9°F-6.7°C 83% 2.0 mph WNW3.2 kmh WNW -- 30.27 in1025.1 mb 0.00 in0.0 mm 0.00 in0.0 mm 0.00 in0.0 mm
01:50 AM 24.3°F-4.3°C 19.9°F-6.7°C 83% 3.0 mph NW4.8 kmh NW 8.0 mph12.9 kmh 30.27 in1025.1 mb 0.00 in0.0 mm 0.00 in0.0 mm 0.00 in0.0 mm
01:55 AM 24.2°F-4.3°C 19.8°F-6.8°C 83% 6.0 mph NW9.7 kmh NW 8.0 mph12.9 kmh 30.27 in1025.1 mb 0.00 in0.0 mm 0.00 in0.0 mm 0.00 in0.0 mm
02:00 AM 24.2°F-4.3°C 19.8°F-6.8°C 83% 2.0 mph NW3.2 kmh NW -- 30.27 in1025.1 mb 0.00 in0.0 mm 0.00 in0.0 mm 0.00 in0.0 mm
02:05 AM 24.2°F-4.3°C 19.8°F-6.8°C 83% 4.0 mph NW6.4 kmh NW -- 30.27 in1025.1 mb 0.00 in0.0 mm 0.00 in0.0 mm 0.00 in0.0 mm
02:10 AM 24.1°F-4.4°C 20.0°F-6.7°C 84% 4.0 mph NW6.4 kmh NW -- 30.28 in1025.4 mb 0.00 in0.0 mm 0.00 in0.0 mm 0.00 in0.0 mm
02:15 AM 24.1°F-4.4°C 19.7°F-6.8°C 83% 4.0 mph NW6.4 kmh NW -- 30.28 in1025.4 mb 0.00 in0.0 mm 0.00 in0.0 mm 0.00 in0.0 mm
02:20 AM 24.0°F-4.4°C 19.6°F-6.9°C 83% 5.0 mph NW8.0 kmh NW -- 30.28 in1025.4 mb 0.00 in0.0 mm 0.00 in0.0 mm 0.00 in0.0 mm
02:25 AM 24.0°F-4.4°C 19.6°F-6.9°C 83% 4.0 mph NW6.4 kmh NW -- 30.28 in1025.4 mb 0.00 in0.0 mm 0.00 in0.0 mm 0.00 in0.0 mm
02:30 AM 23.9°F-4.5°C 19.8°F-6.8°C 84% 5.0 mph NW8.0 kmh NW -- 30.29 in1025.7 mb 0.00 in0.0 mm 0.00 in0.0 mm 0.00 in0.0 mm
02:35 AM 23.9°F-4.5°C 19.8°F-6.8°C 84% 3.0 mph NW4.8 kmh NW -- 30.29 in1025.7 mb 0.00 in0.0 mm 0.00 in0.0 mm 0.00 in0.0 mm
02:40 AM 23.9°F-4.5°C 19.8°F-6.8°C 84% 5.0 mph NW8.0 kmh NW 7.0 mph11.3 kmh 30.29 in1025.7 mb 0.00 in0.0 mm 0.00 in0.0 mm 0.00 in0.0 mm
02:45 AM 23.8°F-4.6°C 19.7°F-6.8°C 84% 6.0 mph NNW9.7 kmh NNW 7.0 mph11.3 kmh 30.29 in1025.7 mb 0.00 in0.0 mm 0.00 in0.0 mm 0.00 in0.0 mm
02:50 AM 23.8°F-4.6°C 19.7°F-6.8°C 84% 5.0 mph NW8.0 kmh NW -- 30.29 in1025.7 mb 0.00 in0.0 mm 0.00 in0.0 mm 0.00 in0.0 mm
02:55 AM 23.8°F-4.6°C 19.7°F-6.8°C 84% 5.0 mph NW8.0 kmh NW -- 30.30 in1026.1 mb 0.00 in0.0 mm 0.00 in0.0 mm 0.00 in0.0 mm
03:00 AM 23.7°F-4.6°C 19.6°F-6.9°C 84% 3.0 mph NW4.8 kmh NW -- 30.30 in1026.1 mb 0.00 in0.0 mm 0.00 in0.0 mm 0.00 in0.0 mm
03:05 AM 23.7°F-4.6°C 19.6°F-6.9°C 84% 3.0 mph NW4.8 kmh NW -- 30.30 in1026.1 mb 0.00 in0.0 mm 0.00 in0.0 mm 0.00 in0.0 mm
03:10 AM 23.6°F-4.7°C 19.5°F-6.9°C 84% 5.0 mph WNW8.0 kmh WNW -- 30.30 in1026.1 mb 0.00 in0.0 mm 0.00 in0.0 mm 0.00 in0.0 mm
03:15 AM 23.6°F-4.7°C 19.8°F-6.8°C 85% 4.0 mph NW6.4 kmh NW -- 30.30 in1026.1 mb 0.00 in0.0 mm 0.00 in0.0 mm 0.00 in0.0 mm
03:20 AM 23.6°F-4.7°C 19.8°F-6.8°C 85% 3.0 mph NW4.8 kmh NW -- 30.30 in1026.1 mb 0.00 in0.0 mm 0.00 in0.0 mm 0.00 in0.0 mm
03:25 AM 23.6°F-4.7°C 19.8°F-6.8°C 85% 3.0 mph NW4.8 kmh NW -- 30.30 in1026.1 mb 0.00 in0.0 mm 0.00 in0.0 mm 0.00 in0.0 mm
03:30 AM 23.6°F-4.7°C 19.8°F-6.8°C 85% 3.0 mph NW4.8 kmh NW 6.0 mph9.7 kmh 30.30 in1026.1 mb 0.00 in0.0 mm 0.00 in0.0 mm 0.00 in0.0 mm
03:35 AM 23.6°F-4.7°C 19.8°F-6.8°C 85% 3.0 mph NW4.8 kmh NW 6.0 mph9.7 kmh 30.30 in1026.1 mb 0.00 in0.0 mm 0.00 in0.0 mm 0.00 in0.0 mm
03:40 AM 23.5°F-4.7°C 19.7°F-6.8°C 85% 1.0 mph NW1.6 kmh NW -- 30.30 in1026.1 mb 0.00 in0.0 mm 0.00 in0.0 mm 0.00 in0.0 mm
03:45 AM 23.6°F-4.7°C 19.8°F-6.8°C 85% 3.0 mph NW4.8 kmh NW -- 30.30 in1026.1 mb 0.00 in0.0 mm 0.00 in0.0 mm 0.00 in0.0 mm
03:50 AM 23.6°F-4.7°C 19.8°F-6.8°C 85% 1.0 mph NW1.6 kmh NW -- 30.30 in1026.1 mb 0.00 in0.0 mm 0.00 in0.0 mm 0.00 in0.0 mm
03:55 AM 23.6°F-4.7°C 19.8°F-6.8°C 85% 3.0 mph NW4.8 kmh NW -- 30.30 in1026.1 mb 0.00 in0.0 mm 0.00 in0.0 mm 0.00 in0.0 mm
04:00 AM 23.5°F-4.7°C 19.7°F-6.8°C 85% 4.0 mph NW6.4 kmh NW -- 30.30 in1026.1 mb 0.00 in0.0 mm 0.00 in0.0 mm 0.00 in0.0 mm
04:05 AM 23.5°F-4.7°C 19.7°F-6.8°C 85% 1.0 mph WNW1.6 kmh WNW -- 30.30 in1026.1 mb 0.00 in0.0 mm 0.00 in0.0 mm 0.00 in0.0 mm
04:10 AM 23.5°F-4.7°C 19.7°F-6.8°C 85% 2.0 mph WNW3.2 kmh WNW -- 30.30 in1026.1 mb 0.00 in0.0 mm 0.00 in0.0 mm 0.00 in0.0 mm
04:15 AM 23.5°F-4.7°C 19.7°F-6.8°C 85% 2.0 mph WNW3.2 kmh WNW -- 30.30 in1026.1 mb 0.00 in0.0 mm 0.00 in0.0 mm 0.00 in0.0 mm
04:20 AM 23.5°F-4.7°C 19.7°F-6.8°C 85% 3.0 mph WNW4.8 kmh WNW 5.0 mph8.0 kmh 30.30 in1026.1 mb 0.00 in0.0 mm 0.00 in0.0 mm 0.00 in0.0 mm
04:25 AM 23.5°F-4.7°C 19.7°F-6.8°C 85% 4.0 mph WNW6.4 kmh WNW 5.0 mph8.0 kmh 30.30 in1026.1 mb 0.00 in0.0 mm 0.00 in0.0 mm 0.00 in0.0 mm
04:30 AM 23.4°F-4.8°C 19.6°F-6.9°C 85% 1.0 mph WNW1.6 kmh WNW -- 30.31 in1026.4 mb 0.00 in0.0 mm 0.00 in0.0 mm 0.00 in0.0 mm
04:35 AM 23.5°F-4.7°C 19.7°F-6.8°C 85% 4.0 mph WNW6.4 kmh WNW -- 30.31 in1026.4 mb 0.00 in0.0 mm 0.00 in0.0 mm 0.00 in0.0 mm
04:40 AM 23.4°F-4.8°C 19.6°F-6.9°C 85% 4.0 mph WNW6.4 kmh WNW -- 30.31 in1026.4 mb 0.00 in0.0 mm 0.00 in0.0 mm 0.00 in0.0 mm
04:45 AM 23.4°F-4.8°C 19.6°F-6.9°C 85% 4.0 mph WNW6.4 kmh WNW -- 30.31 in1026.4 mb 0.00 in0.0 mm 0.00 in0.0 mm 0.00 in0.0 mm
04:50 AM 23.4°F-4.8°C 19.6°F-6.9°C 85% 3.0 mph WNW4.8 kmh WNW -- 30.31 in1026.4 mb 0.00 in0.0 mm 0.00 in0.0 mm 0.00 in0.0 mm
04:55 AM 23.4°F-4.8°C 19.6°F-6.9°C 85% 5.0 mph WNW8.0 kmh WNW -- 30.31 in1026.4 mb 0.00 in0.0 mm 0.00 in0.0 mm 0.00 in0.0 mm
05:00 AM 23.4°F-4.8°C 19.6°F-6.9°C 85% 4.0 mph WNW6.4 kmh WNW -- 30.32 in1026.8 mb 0.00 in0.0 mm 0.00 in0.0 mm 0.00 in0.0 mm
05:05 AM 23.4°F-4.8°C 19.6°F-6.9°C 85% 3.0 mph NW4.8 kmh NW -- 30.31 in1026.4 mb 0.00 in0.0 mm 0.00 in0.0 mm 0.00 in0.0 mm
05:10 AM 23.4°F-4.8°C 19.6°F-6.9°C 85% 3.0 mph NW4.8 kmh NW 7.0 mph11.3 kmh 30.31 in1026.4 mb 0.00 in0.0 mm 0.00 in0.0 mm 0.00 in0.0 mm
05:15 AM 23.3°F-4.8°C 19.5°F-6.9°C 85% 5.0 mph NW8.0 kmh NW 7.0 mph11.3 kmh 30.31 in1026.4 mb 0.00 in0.0 mm 0.00 in0.0 mm 0.00 in0.0 mm
05:20 AM 23.3°F-4.8°C 19.2°F-7.1°C 84% 2.0 mph NNW3.2 kmh NNW -- 30.31 in1026.4 mb 0.00 in0.0 mm 0.00 in0.0 mm 0.00 in0.0 mm
05:25 AM 23.3°F-4.8°C 19.2°F-7.1°C 84% 3.0 mph NNW4.8 kmh NNW -- 30.31 in1026.4 mb 0.00 in0.0 mm 0.00 in0.0 mm 0.00 in0.0 mm
05:30 AM 23.3°F-4.8°C 19.2°F-7.1°C 84% 2.0 mph N3.2 kmh N -- 30.31 in1026.4 mb 0.00 in0.0 mm 0.00 in0.0 mm 0.00 in0.0 mm
05:35 AM 23.3°F-4.8°C 19.2°F-7.1°C 84% 3.0 mph N4.8 kmh N -- 30.31 in1026.4 mb 0.00 in0.0 mm 0.00 in0.0 mm 0.00 in0.0 mm
05:40 AM 23.3°F-4.8°C 19.2°F-7.1°C 84% 3.0 mph NW4.8 kmh NW -- 30.31 in1026.4 mb 0.00 in0.0 mm 0.00 in0.0 mm 0.00 in0.0 mm
05:45 AM 23.3°F-4.8°C 18.9°F-7.3°C 83% 2.0 mph NNW3.2 kmh NNW -- 30.31 in1026.4 mb 0.00 in0.0 mm 0.00 in0.0 mm 0.00 in0.0 mm
05:50 AM 23.3°F-4.8°C 18.9°F-7.3°C 83% 3.0 mph NNW4.8 kmh NNW -- 30.32 in1026.8 mb 0.00 in0.0 mm 0.00 in0.0 mm 0.00 in0.0 mm
05:55 AM 23.3°F-4.8°C 18.9°F-7.3°C 83% 1.0 mph NW1.6 kmh NW -- 30.32 in1026.8 mb 0.00 in0.0 mm 0.00 in0.0 mm 0.00 in0.0 mm
06:00 AM 23.3°F-4.8°C 18.9°F-7.3°C 83% Calm Calm 5.0 mph8.0 kmh 30.32 in1026.8 mb 0.00 in0.0 mm 0.00 in0.0 mm 0.00 in0.0 mm
06:05 AM 23.3°F-4.8°C 18.9°F-7.3°C 83% Calm Calm 5.0 mph8.0 kmh 30.32 in1026.8 mb 0.00 in0.0 mm 0.00 in0.0 mm 0.00 in0.0 mm
06:10 AM 23.1°F-4.9°C 18.4°F-7.6°C 82% 4.0 mph N6.4 kmh N -- 30.32 in1026.8 mb 0.00 in0.0 mm 0.00 in0.0 mm 0.00 in0.0 mm
06:15 AM 22.7°F-5.2°C 17.8°F-7.9°C 81% 2.0 mph N3.2 kmh N -- 30.33 in1027.1 mb 0.00 in0.0 mm 0.00 in0.0 mm 0.00 in0.0 mm
06:20 AM 22.5°F-5.3°C 17.6°F-8.0°C 81% 3.0 mph NE4.8 kmh NE -- 30.33 in1027.1 mb 0.00 in0.0 mm 0.00 in0.0 mm 0.00 in0.0 mm
06:25 AM 22.4°F-5.3°C 17.5°F-8.1°C 81% 5.0 mph N8.0 kmh N -- 30.33 in1027.1 mb 0.00 in0.0 mm 0.00 in0.0 mm 0.00 in0.0 mm
06:30 AM 22.4°F-5.3°C 17.5°F-8.1°C 81% 1.0 mph N1.6 kmh N -- 30.33 in1027.1 mb 0.00 in0.0 mm 0.00 in0.0 mm 0.00 in0.0 mm
06:35 AM 22.3°F-5.4°C 17.1°F-8.3°C 80% 3.0 mph N4.8 kmh N -- 30.34 in1027.4 mb 0.00 in0.0 mm 0.00 in0.0 mm 0.00 in0.0 mm
06:40 AM 22.3°F-5.4°C 17.4°F-8.1°C 81% 2.0 mph N3.2 kmh N -- 30.34 in1027.4 mb 0.00 in0.0 mm 0.00 in0.0 mm 0.00 in0.0 mm
06:45 AM 22.3°F-5.4°C 17.4°F-8.1°C 81% 1.0 mph N1.6 kmh N -- 30.33 in1027.1 mb 0.00 in0.0 mm 0.00 in0.0 mm 0.00 in0.0 mm
06:50 AM 22.3°F-5.4°C 17.4°F-8.1°C 81% 3.0 mph N4.8 kmh N 4.0 mph6.4 kmh 30.33 in1027.1 mb 0.00 in0.0 mm 0.00 in0.0 mm 0.00 in0.0 mm
06:55 AM 22.3°F-5.4°C 17.4°F-8.1°C 81% Calm Calm 4.0 mph6.4 kmh 30.33 in1027.1 mb 0.00 in0.0 mm 0.00 in0.0 mm 0.00 in0.0 mm
07:00 AM 22.3°F-5.4°C 17.4°F-8.1°C 81% Calm Calm -- 30.33 in1027.1 mb 0.00 in0.0 mm 0.00 in0.0 mm 0.00 in0.0 mm
07:05 AM 22.3°F-5.4°C 17.4°F-8.1°C 81% Calm Calm -- 30.34 in1027.4 mb 0.00 in0.0 mm 0.00 in0.0 mm 0.00 in0.0 mm
07:10 AM 22.3°F-5.4°C 17.7°F-7.9°C 82% Calm Calm -- 30.34 in1027.4 mb 0.00 in0.0 mm 0.00 in0.0 mm 0.00 in0.0 mm
07:15 AM 22.3°F-5.4°C 17.7°F-7.9°C 82% 1.0 mph N1.6 kmh N -- 30.34 in1027.4 mb 0.00 in0.0 mm 0.00 in0.0 mm 0.00 in0.0 mm
07:20 AM 22.3°F-5.4°C 17.7°F-7.9°C 82% Calm Calm -- 30.34 in1027.4 mb 0.00 in0.0 mm 0.00 in0.0 mm 0.00 in0.0 mm
07:25 AM 22.3°F-5.4°C 17.7°F-7.9°C 82% Calm Calm -- 30.34 in1027.4 mb 0.00 in0.0 mm 0.00 in0.0 mm 0.00 in0.0 mm
07:30 AM 22.3°F-5.4°C 17.7°F-7.9°C 82% Calm Calm -- 30.34 in1027.4 mb 0.00 in0.0 mm 0.00 in0.0 mm 0.00 in0.0 mm
07:35 AM 22.1°F-5.5°C 17.5°F-8.1°C 82% Calm Calm -- 30.34 in1027.4 mb 0.00 in0.0 mm 0.00 in0.0 mm 0.00 in0.0 mm
07:40 AM 22.1°F-5.5°C 17.7°F-7.9°C 83% Calm Calm -- 30.34 in1027.4 mb 0.00 in0.0 mm 0.00 in0.0 mm 0.00 in0.0 mm
07:45 AM 21.9°F-5.6°C 17.3°F-8.2°C 82% Calm Calm -- 30.34 in1027.4 mb 0.00 in0.0 mm 0.00 in0.0 mm 0.00 in0.0 mm
07:50 AM 21.9°F-5.6°C 17.3°F-8.2°C 82% Calm Calm -- 30.34 in1027.4 mb 0.00 in0.0 mm 0.00 in0.0 mm 0.00 in0.0 mm
07:55 AM 21.8°F-5.7°C 17.2°F-8.2°C 82% Calm Calm -- 30.34 in1027.4 mb 0.00 in0.0 mm 0.00 in0.0 mm 0.00 in0.0 mm
08:00 AM 21.7°F-5.7°C 17.1°F-8.3°C 82% Calm Calm -- 30.34 in1027.4 mb 0.00 in0.0 mm 0.00 in0.0 mm 0.00 in0.0 mm
08:05 AM 21.7°F-5.7°C 17.1°F-8.3°C 82% Calm Calm -- 30.34 in1027.4 mb 0.00 in0.0 mm 0.00 in0.0 mm 0.00 in0.0 mm
08:10 AM 21.7°F-5.7°C 17.1°F-8.3°C 82% Calm Calm -- 30.34 in1027.4 mb 0.00 in0.0 mm 0.00 in0.0 mm 0.00 in0.0 mm
08:15 AM 21.6°F-5.8°C 17.0°F-8.3°C 82% Calm Calm -- 30.34 in1027.4 mb 0.00 in0.0 mm 0.00 in0.0 mm 0.00 in0.0 mm
08:20 AM 21.6°F-5.8°C 17.0°F-8.3°C 82% Calm Calm -- 30.34 in1027.4 mb 0.00 in0.0 mm 0.00 in0.0 mm 0.00 in0.0 mm
08:25 AM 21.5°F-5.8°C 16.9°F-8.4°C 82% Calm Calm -- 30.35 in1027.8 mb 0.00 in0.0 mm 0.00 in0.0 mm 0.00 in0.0 mm
08:30 AM 21.5°F-5.8°C 16.9°F-8.4°C 82% Calm Calm -- 30.35 in1027.8 mb 0.00 in0.0 mm 0.00 in0.0 mm 0.00 in0.0 mm
08:35 AM 21.4°F-5.9°C 16.8°F-8.4°C 82% Calm Calm -- 30.35 in1027.8 mb 0.00 in0.0 mm 0.00 in0.0 mm 0.00 in0.0 mm
08:40 AM 21.4°F-5.9°C 16.8°F-8.4°C 82% Calm Calm -- 30.35 in1027.8 mb 0.00 in0.0 mm 0.00 in0.0 mm 0.00 in0.0 mm
08:45 AM 21.3°F-5.9°C 16.7°F-8.5°C 82% Calm Calm -- 30.35 in1027.8 mb 0.00 in0.0 mm 0.00 in0.0 mm 0.00 in0.0 mm
08:50 AM 21.4°F-5.9°C 16.8°F-8.4°C 82% Calm Calm -- 30.34 in1027.4 mb 0.00 in0.0 mm 0.00 in0.0 mm 0.00 in0.0 mm
08:55 AM 21.3°F-5.9°C 16.7°F-8.5°C 82% Calm Calm -- 30.35 in1027.8 mb 0.00 in0.0 mm 0.00 in0.0 mm 0.00 in0.0 mm
09:00 AM 21.3°F-5.9°C 16.7°F-8.5°C 82% Calm Calm -- 30.35 in1027.8 mb 0.00 in0.0 mm 0.00 in0.0 mm 0.00 in0.0 mm
09:05 AM 21.4°F-5.9°C 16.8°F-8.4°C 82% Calm Calm -- 30.36 in1028.1 mb 0.00 in0.0 mm 0.00 in0.0 mm 0.00 in0.0 mm
09:10 AM 21.4°F-5.9°C 16.8°F-8.4°C 82% Calm Calm -- 30.35 in1027.8 mb 0.00 in0.0 mm 0.00 in0.0 mm 0.00 in0.0 mm
09:15 AM 21.4°F-5.9°C 16.8°F-8.4°C 82% Calm Calm -- 30.36 in1028.1 mb 0.00 in0.0 mm 0.00 in0.0 mm 0.00 in0.0 mm
09:20 AM 21.4°F-5.9°C 16.8°F-8.4°C 82% Calm Calm -- 30.36 in1028.1 mb 0.00 in0.0 mm 0.00 in0.0 mm 0.00 in0.0 mm
09:25 AM 21.5°F-5.8°C 16.6°F-8.6°C 81% Calm Calm -- 30.36 in1028.1 mb 0.00 in0.0 mm 0.00 in0.0 mm 0.00 in0.0 mm
09:30 AM 21.6°F-5.8°C 16.7°F-8.5°C 81% Calm Calm -- 30.36 in1028.1 mb 0.00 in0.0 mm 0.00 in0.0 mm 0.00 in0.0 mm
09:35 AM 21.6°F-5.8°C 16.7°F-8.5°C 81% Calm Calm -- 30.36 in1028.1 mb 0.00 in0.0 mm 0.00 in0.0 mm 0.00 in0.0 mm
09:40 AM 21.7°F-5.7°C 16.8°F-8.4°C 81% Calm Calm -- 30.36 in1028.1 mb 0.00 in0.0 mm 0.00 in0.0 mm 0.00 in0.0 mm
09:45 AM 21.7°F-5.7°C 16.8°F-8.4°C 81% Calm Calm -- 30.36 in1028.1 mb 0.00 in0.0 mm 0.00 in0.0 mm 0.00 in0.0 mm
09:50 AM 21.8°F-5.7°C 16.9°F-8.4°C 81% Calm Calm -- 30.36 in1028.1 mb 0.00 in0.0 mm 0.00 in0.0 mm 0.00 in0.0 mm
09:55 AM 21.8°F-5.7°C 16.9°F-8.4°C 81% Calm Calm -- 30.36 in1028.1 mb 0.00 in0.0 mm 0.00 in0.0 mm 0.00 in0.0 mm
10:00 AM 21.8°F-5.7°C 16.9°F-8.4°C 81% Calm Calm -- 30.36 in1028.1 mb 0.00 in0.0 mm 0.00 in0.0 mm 0.00 in0.0 mm
10:05 AM 21.9°F-5.6°C 17.0°F-8.3°C 81% Calm Calm -- 30.36 in1028.1 mb 0.00 in0.0 mm 0.00 in0.0 mm 0.00 in0.0 mm
10:10 AM 22.0°F-5.6°C 17.4°F-8.1°C 82% Calm Calm -- 30.37 in1028.4 mb 0.00 in0.0 mm 0.00 in0.0 mm 0.00 in0.0 mm
10:15 AM 22.0°F-5.6°C 17.1°F-8.3°C 81% Calm Calm -- 30.37 in1028.4 mb 0.00 in0.0 mm 0.00 in0.0 mm 0.00 in0.0 mm
10:20 AM 22.0°F-5.6°C 17.1°F-8.3°C 81% Calm Calm -- 30.37 in1028.4 mb 0.00 in0.0 mm 0.00 in0.0 mm 0.00 in0.0 mm
10:25 AM 22.0°F-5.6°C 17.1°F-8.3°C 81% Calm Calm -- 30.37 in1028.4 mb 0.00 in0.0 mm 0.00 in0.0 mm 0.00 in0.0 mm
10:30 AM 21.9°F-5.6°C 17.0°F-8.3°C 81% Calm Calm -- 30.38 in1028.8 mb 0.00 in0.0 mm 0.00 in0.0 mm 0.00 in0.0 mm
10:35 AM 22.0°F-5.6°C 17.1°F-8.3°C 81% Calm Calm -- 30.38 in1028.8 mb 0.00 in0.0 mm 0.00 in0.0 mm 0.00 in0.0 mm
10:40 AM 22.0°F-5.6°C 17.1°F-8.3°C 81% Calm Calm -- 30.38 in1028.8 mb 0.00 in0.0 mm 0.00 in0.0 mm 0.00 in0.0 mm
10:45 AM 22.1°F-5.5°C 17.2°F-8.2°C 81% Calm Calm -- 30.38 in1028.8 mb 0.00 in0.0 mm 0.00 in0.0 mm 0.00 in0.0 mm
10:50 AM 22.2°F-5.4°C 17.3°F-8.2°C 81% Calm Calm -- 30.39 in1029.1 mb 0.00 in0.0 mm 0.00 in0.0 mm 0.00 in0.0 mm
10:55 AM 22.1°F-5.5°C 17.2°F-8.2°C 81% Calm Calm -- 30.39 in1029.1 mb 0.00 in0.0 mm 0.00 in0.0 mm 0.00 in0.0 mm
11:00 AM 22.1°F-5.5°C 16.9°F-8.4°C 80% Calm Calm -- 30.39 in1029.1 mb 0.00 in0.0 mm 0.00 in0.0 mm 0.00 in0.0 mm
11:05 AM 22.0°F-5.6°C 16.8°F-8.4°C 80% Calm Calm -- 30.39 in1029.1 mb 0.00 in0.0 mm 0.00 in0.0 mm 0.00 in0.0 mm
11:10 AM 22.0°F-5.6°C 17.1°F-8.3°C 81% Calm Calm -- 30.39 in1029.1 mb 0.00 in0.0 mm 0.00 in0.0 mm 0.00 in0.0 mm
11:15 AM 22.1°F-5.5°C 17.2°F-8.2°C 81% Calm Calm -- 30.39 in1029.1 mb 0.00 in0.0 mm 0.00 in0.0 mm 0.00 in0.0 mm
11:20 AM 22.2°F-5.4°C 17.3°F-8.2°C 81% Calm Calm -- 30.39 in1029.1 mb 0.00 in0.0 mm 0.00 in0.0 mm 0.00 in0.0 mm
11:25 AM 22.2°F-5.4°C 17.0°F-8.3°C 80% Calm Calm -- 30.40 in1029.5 mb 0.00 in0.0 mm 0.00 in0.0 mm 0.00 in0.0 mm
11:30 AM 22.3°F-5.4°C 17.1°F-8.3°C 80% Calm Calm -- 30.40 in1029.5 mb 0.00 in0.0 mm 0.00 in0.0 mm 0.00 in0.0 mm
11:35 AM 22.2°F-5.4°C 17.0°F-8.3°C 80% Calm Calm -- 30.40 in1029.5 mb 0.00 in0.0 mm 0.00 in0.0 mm 0.00 in0.0 mm
11:40 AM 22.3°F-5.4°C 17.1°F-8.3°C 80% Calm Calm -- 30.40 in1029.5 mb 0.00 in0.0 mm 0.00 in0.0 mm 0.00 in0.0 mm
11:45 AM 22.5°F-5.3°C 17.3°F-8.2°C 80% Calm Calm -- 30.40 in1029.5 mb 0.00 in0.0 mm 0.00 in0.0 mm 0.00 in0.0 mm
11:50 AM 22.7°F-5.2°C 17.5°F-8.1°C 80% Calm Calm -- 30.40 in1029.5 mb 0.00 in0.0 mm 0.00 in0.0 mm 0.00 in0.0 mm
11:55 AM 22.7°F-5.2°C 17.5°F-8.1°C 80% Calm Calm -- 30.40 in1029.5 mb 0.00 in0.0 mm 0.00 in0.0 mm 0.00 in0.0 mm
12:00 PM 22.5°F-5.3°C 17.3°F-8.2°C 80% Calm Calm -- 30.39 in1029.1 mb 0.00 in0.0 mm 0.00 in0.0 mm 0.00 in0.0 mm
12:05 PM 22.4°F-5.3°C 17.2°F-8.2°C 80% Calm Calm -- 30.39 in1029.1 mb 0.00 in0.0 mm 0.00 in0.0 mm 0.00 in0.0 mm
12:10 PM 22.5°F-5.3°C 17.3°F-8.2°C 80% Calm Calm -- 30.39 in1029.1 mb 0.00 in0.0 mm 0.00 in0.0 mm 0.00 in0.0 mm
12:15 PM 22.6°F-5.2°C 17.4°F-8.1°C 80% Calm Calm -- 30.39 in1029.1 mb 0.00 in0.0 mm 0.00 in0.0 mm 0.00 in0.0 mm
12:20 PM 22.9°F-5.1°C 18.0°F-7.8°C 81% Calm Calm -- 30.39 in1029.1 mb 0.00 in0.0 mm 0.00 in0.0 mm 0.00 in0.0 mm
12:25 PM 23.1°F-4.9°C 18.2°F-7.7°C 81% Calm Calm -- 30.39 in1029.1 mb 0.00 in0.0 mm 0.00 in0.0 mm 0.00 in0.0 mm
12:30 PM 23.2°F-4.9°C 18.3°F-7.6°C 81% Calm Calm -- 30.38 in1028.8 mb 0.00 in0.0 mm 0.00 in0.0 mm 0.00 in0.0 mm
12:35 PM 23.2°F-4.9°C 18.3°F-7.6°C 81% Calm Calm -- 30.38 in1028.8 mb 0.00 in0.0 mm 0.00 in0.0 mm 0.00 in0.0 mm
12:40 PM 23.3°F-4.8°C 18.3°F-7.6°C 81% Calm Calm -- 30.38 in1028.8 mb 0.00 in0.0 mm 0.00 in0.0 mm 0.00 in0.0 mm
12:45 PM 23.1°F-4.9°C 17.9°F-7.8°C 80% Calm Calm -- 30.38 in1028.8 mb 0.00 in0.0 mm 0.00 in0.0 mm 0.00 in0.0 mm
12:50 PM 23.2°F-4.9°C 18.3°F-7.6°C 81% Calm Calm -- 30.38 in1028.8 mb 0.00 in0.0 mm 0.00 in0.0 mm 0.00 in0.0 mm
12:55 PM 23.3°F-4.8°C 18.3°F-7.6°C 81% Calm Calm -- 30.38 in1028.8 mb 0.00 in0.0 mm 0.00 in0.0 mm 0.00 in0.0 mm
01:00 PM 23.4°F-4.8°C 18.4°F-7.6°C 81% Calm Calm -- 30.38 in1028.8 mb 0.00 in0.0 mm 0.00 in0.0 mm 0.00 in0.0 mm
01:05 PM 23.5°F-4.7°C 18.5°F-7.5°C 81% Calm Calm -- 30.37 in1028.4 mb 0.00 in0.0 mm 0.00 in0.0 mm 0.00 in0.0 mm
01:10 PM 23.7°F-4.6°C 18.7°F-7.4°C 81% Calm Calm -- 30.37 in1028.4 mb 0.00 in0.0 mm 0.00 in0.0 mm 0.00 in0.0 mm
01:15 PM 23.8°F-4.6°C 18.8°F-7.3°C 81% Calm Calm -- 30.37 in1028.4 mb 0.00 in0.0 mm 0.00 in0.0 mm 0.00 in0.0 mm
01:20 PM 24.0°F-4.4°C 19.3°F-7.1°C 82% Calm Calm -- 30.37 in1028.4 mb 0.00 in0.0 mm 0.00 in0.0 mm 0.00 in0.0 mm
01:25 PM 23.9°F-4.5°C 18.9°F-7.3°C 81% Calm Calm -- 30.36 in1028.1 mb 0.00 in0.0 mm 0.00 in0.0 mm 0.00 in0.0 mm
01:30 PM 23.9°F-4.5°C 18.9°F-7.3°C 81% Calm Calm -- 30.36 in1028.1 mb 0.00 in0.0 mm 0.00 in0.0 mm 0.00 in0.0 mm
01:35 PM 23.9°F-4.5°C 18.9°F-7.3°C 81% Calm Calm -- 30.36 in1028.1 mb 0.00 in0.0 mm 0.00 in0.0 mm 0.00 in0.0 mm
01:40 PM 23.8°F-4.6°C 18.8°F-7.3°C 81% Calm Calm -- 30.36 in1028.1 mb 0.00 in0.0 mm 0.00 in0.0 mm 0.00 in0.0 mm
01:45 PM 23.9°F-4.5°C 18.9°F-7.3°C 81% Calm Calm -- 30.36 in1028.1 mb 0.00 in0.0 mm 0.00 in0.0 mm 0.00 in0.0 mm
01:50 PM 24.0°F-4.4°C 19.3°F-7.1°C 82% Calm Calm -- 30.36 in1028.1 mb 0.00 in0.0 mm 0.00 in0.0 mm 0.00 in0.0 mm
01:55 PM 24.0°F-4.4°C 19.3°F-7.1°C 82% Calm Calm -- 30.36 in1028.1 mb 0.00 in0.0 mm 0.00 in0.0 mm 0.00 in0.0 mm
02:00 PM 24.1°F-4.4°C 19.4°F-7.0°C 82% Calm Calm -- 30.36 in1028.1 mb 0.00 in0.0 mm 0.00 in0.0 mm 0.00 in0.0 mm
02:05 PM 24.2°F-4.3°C 19.5°F-6.9°C 82% Calm Calm -- 30.36 in1028.1 mb 0.00 in0.0 mm 0.00 in0.0 mm 0.00 in0.0 mm
02:10 PM 24.4°F-4.2°C 20.0°F-6.7°C 83% Calm Calm -- 30.35 in1027.8 mb 0.00 in0.0 mm 0.00 in0.0 mm 0.00 in0.0 mm
02:15 PM 24.5°F-4.2°C 19.8°F-6.8°C 82% Calm Calm -- 30.35 in1027.8 mb 0.00 in0.0 mm 0.00 in0.0 mm 0.00 in0.0 mm
02:20 PM 24.7°F-4.1°C 20.0°F-6.7°C 82% Calm Calm -- 30.35 in1027.8 mb 0.00 in0.0 mm 0.00 in0.0 mm 0.00 in0.0 mm
02:25 PM 24.7°F-4.1°C 20.0°F-6.7°C 82% 1.0 mph WSW1.6 kmh WSW -- 30.35 in1027.8 mb 0.00 in0.0 mm 0.00 in0.0 mm 0.00 in0.0 mm
02:30 PM 24.8°F-4.0°C 20.1°F-6.6°C 82% 1.0 mph WSW1.6 kmh WSW -- 30.34 in1027.4 mb 0.00 in0.0 mm 0.00 in0.0 mm 0.00 in0.0 mm
02:35 PM 24.9°F-3.9°C 20.2°F-6.6°C 82% 2.0 mph W3.2 kmh W -- 30.34 in1027.4 mb 0.00 in0.0 mm 0.00 in0.0 mm 0.00 in0.0 mm
02:40 PM 24.9°F-3.9°C 19.9°F-6.7°C 81% 2.0 mph SW3.2 kmh SW -- 30.34 in1027.4 mb 0.00 in0.0 mm 0.00 in0.0 mm 0.00 in0.0 mm
02:45 PM 25.1°F-3.8°C 20.1°F-6.6°C 81% Calm Calm -- 30.34 in1027.4 mb 0.00 in0.0 mm 0.00 in0.0 mm 0.00 in0.0 mm
02:50 PM 25.2°F-3.8°C 20.2°F-6.6°C 81% 1.0 mph WSW1.6 kmh WSW -- 30.34 in1027.4 mb 0.00 in0.0 mm 0.00 in0.0 mm 0.00 in0.0 mm
02:55 PM 25.2°F-3.8°C 20.2°F-6.6°C 81% 2.0 mph WSW3.2 kmh WSW -- 30.34 in1027.4 mb 0.00 in0.0 mm 0.00 in0.0 mm 0.00 in0.0 mm
03:00 PM 25.4°F-3.7°C 20.1°F-6.6°C 80% 2.0 mph WSW3.2 kmh WSW -- 30.35 in1027.8 mb 0.00 in0.0 mm 0.00 in0.0 mm 0.00 in0.0 mm
03:05 PM 25.6°F-3.6°C 20.0°F-6.7°C 79% Calm Calm -- 30.35 in1027.8 mb 0.00 in0.0 mm 0.00 in0.0 mm 0.00 in0.0 mm
03:10 PM 25.6°F-3.6°C 20.0°F-6.7°C 79% Calm Calm 5.0 mph8.0 kmh 30.35 in1027.8 mb 0.00 in0.0 mm 0.00 in0.0 mm 0.00 in0.0 mm
03:15 PM 25.6°F-3.6°C 20.0°F-6.7°C 79% Calm Calm 5.0 mph8.0 kmh 30.35 in1027.8 mb 0.00 in0.0 mm 0.00 in0.0 mm 0.00 in0.0 mm
03:20 PM 25.7°F-3.5°C 20.1°F-6.6°C 79% Calm Calm -- 30.35 in1027.8 mb 0.00 in0.0 mm 0.00 in0.0 mm 0.00 in0.0 mm
03:25 PM 25.7°F-3.5°C 19.8°F-6.8°C 78% Calm Calm -- 30.34 in1027.4 mb 0.00 in0.0 mm 0.00 in0.0 mm 0.00 in0.0 mm
03:30 PM 25.8°F-3.4°C 19.9°F-6.7°C 78% Calm Calm -- 30.34 in1027.4 mb 0.00 in0.0 mm 0.00 in0.0 mm 0.00 in0.0 mm
03:35 PM 26.0°F-3.3°C 20.4°F-6.4°C 79% Calm Calm -- 30.34 in1027.4 mb 0.00 in0.0 mm 0.00 in0.0 mm 0.00 in0.0 mm
03:40 PM 26.2°F-3.2°C 20.3°F-6.5°C 78% Calm Calm -- 30.34 in1027.4 mb 0.00 in0.0 mm 0.00 in0.0 mm 0.00 in0.0 mm
03:45 PM 26.0°F-3.3°C 19.8°F-6.8°C 77% Calm Calm -- 30.34 in1027.4 mb 0.00 in0.0 mm 0.00 in0.0 mm 0.00 in0.0 mm
03:50 PM 26.0°F-3.3°C 19.8°F-6.8°C 77% Calm Calm -- 30.34 in1027.4 mb 0.00 in0.0 mm 0.00 in0.0 mm 0.00 in0.0 mm
03:55 PM 26.0°F-3.3°C 19.8°F-6.8°C 77% Calm Calm -- 30.34 in1027.4 mb 0.00 in0.0 mm 0.00 in0.0 mm 0.00 in0.0 mm
04:00 PM 26.1°F-3.3°C 19.9°F-6.7°C 77% Calm Calm -- 30.34 in1027.4 mb 0.00 in0.0 mm 0.00 in0.0 mm 0.00 in0.0 mm
04:05 PM 26.1°F-3.3°C 19.9°F-6.7°C 77% Calm Calm -- 30.34 in1027.4 mb 0.00 in0.0 mm 0.00 in0.0 mm 0.00 in0.0 mm
04:10 PM 26.1°F-3.3°C 19.9°F-6.7°C 77% Calm Calm -- 30.34 in1027.4 mb 0.00 in0.0 mm 0.00 in0.0 mm 0.00 in0.0 mm
04:15 PM 26.2°F-3.2°C 20.0°F-6.7°C 77% Calm Calm -- 30.35 in1027.8 mb 0.00 in0.0 mm 0.00 in0.0 mm 0.00 in0.0 mm
04:20 PM 26.2°F-3.2°C 20.0°F-6.7°C 77% Calm Calm -- 30.35 in1027.8 mb 0.00 in0.0 mm 0.00 in0.0 mm 0.00 in0.0 mm
04:25 PM 26.2°F-3.2°C 19.7°F-6.8°C 76% Calm Calm -- 30.35 in1027.8 mb 0.00 in0.0 mm 0.00 in0.0 mm 0.00 in0.0 mm
04:30 PM 26.3°F-3.2°C 20.1°F-6.6°C 77% Calm Calm -- 30.35 in1027.8 mb 0.00 in0.0 mm 0.00 in0.0 mm 0.00 in0.0 mm
04:35 PM 26.3°F-3.2°C 19.8°F-6.8°C 76% Calm Calm -- 30.36 in1028.1 mb 0.00 in0.0 mm 0.00 in0.0 mm 0.00 in0.0 mm
04:40 PM 26.4°F-3.1°C 19.9°F-6.7°C 76% Calm Calm -- 30.36 in1028.1 mb 0.00 in0.0 mm 0.00 in0.0 mm 0.00 in0.0 mm
04:45 PM 26.6°F-3.0°C 20.1°F-6.6°C 76% Calm Calm -- 30.36 in1028.1 mb 0.00 in0.0 mm 0.00 in0.0 mm 0.00 in0.0 mm
04:50 PM 26.6°F-3.0°C 20.1°F-6.6°C 76% Calm Calm -- 30.36 in1028.1 mb 0.00 in0.0 mm 0.00 in0.0 mm 0.00 in0.0 mm
04:55 PM 26.7°F-2.9°C 20.2°F-6.6°C 76% Calm Calm -- 30.36 in1028.1 mb 0.00 in0.0 mm 0.00 in0.0 mm 0.00 in0.0 mm
05:00 PM 26.7°F-2.9°C 20.2°F-6.6°C 76% Calm Calm -- 30.36 in1028.1 mb 0.00 in0.0 mm 0.00 in0.0 mm 0.00 in0.0 mm
05:05 PM 26.7°F-2.9°C 20.2°F-6.6°C 76% Calm Calm -- 30.36 in1028.1 mb 0.00 in0.0 mm 0.00 in0.0 mm 0.00 in0.0 mm
05:10 PM 26.6°F-3.0°C 20.1°F-6.6°C 76% Calm Calm -- 30.36 in1028.1 mb 0.00 in0.0 mm 0.00 in0.0 mm 0.00 in0.0 mm
05:15 PM 26.6°F-3.0°C 20.1°F-6.6°C 76% Calm Calm -- 30.36 in1028.1 mb 0.00 in0.0 mm 0.00 in0.0 mm 0.00 in0.0 mm
05:20 PM 26.5°F-3.1°C 20.0°F-6.7°C 76% Calm Calm -- 30.37 in1028.4 mb 0.00 in0.0 mm 0.00 in0.0 mm 0.00 in0.0 mm
05:25 PM 26.5°F-3.1°C 20.0°F-6.7°C 76% Calm Calm -- 30.37 in1028.4 mb 0.00 in0.0 mm 0.00 in0.0 mm 0.00 in0.0 mm
05:30 PM 26.6°F-3.0°C 20.1°F-6.6°C 76% Calm Calm -- 30.37 in1028.4 mb 0.00 in0.0 mm 0.00 in0.0 mm 0.00 in0.0 mm
05:35 PM 26.6°F-3.0°C 20.1°F-6.6°C 76% Calm Calm -- 30.37 in1028.4 mb 0.00 in0.0 mm 0.00 in0.0 mm 0.00 in0.0 mm
05:40 PM 26.6°F-3.0°C 20.1°F-6.6°C 76% Calm Calm -- 30.37 in1028.4 mb 0.00 in0.0 mm 0.00 in0.0 mm 0.00 in0.0 mm
05:45 PM 26.5°F-3.1°C 20.0°F-6.7°C 76% Calm Calm -- 30.37 in1028.4 mb 0.00 in0.0 mm 0.00 in0.0 mm 0.00 in0.0 mm
05:50 PM 26.6°F-3.0°C 20.4°F-6.4°C 77% Calm Calm -- 30.37 in1028.4 mb 0.00 in0.0 mm 0.00 in0.0 mm 0.00 in0.0 mm
05:55 PM 26.6°F-3.0°C 20.4°F-6.4°C 77% Calm Calm -- 30.37 in1028.4 mb 0.00 in0.0 mm 0.00 in0.0 mm 0.00 in0.0 mm
06:00 PM 26.7°F-2.9°C 20.5°F-6.4°C 77% Calm Calm -- 30.37 in1028.4 mb 0.00 in0.0 mm 0.00 in0.0 mm 0.00 in0.0 mm
06:05 PM 26.6°F-3.0°C 20.4°F-6.4°C 77% Calm Calm -- 30.38 in1028.8 mb 0.00 in0.0 mm 0.00 in0.0 mm 0.00 in0.0 mm
06:10 PM 26.6°F-3.0°C 20.4°F-6.4°C 77% Calm Calm -- 30.38 in1028.8 mb 0.00 in0.0 mm 0.00 in0.0 mm 0.00 in0.0 mm
06:15 PM 26.6°F-3.0°C 20.4°F-6.4°C 77% Calm Calm -- 30.38 in1028.8 mb 0.00 in0.0 mm 0.00 in0.0 mm 0.00 in0.0 mm
06:20 PM 26.6°F-3.0°C 20.4°F-6.4°C 77% Calm Calm -- 30.38 in1028.8 mb 0.00 in0.0 mm 0.00 in0.0 mm 0.00 in0.0 mm
06:25 PM 26.6°F-3.0°C 20.4°F-6.4°C 77% Calm Calm -- 30.38 in1028.8 mb 0.00 in0.0 mm 0.00 in0.0 mm 0.00 in0.0 mm
06:30 PM 26.6°F-3.0°C 20.4°F-6.4°C 77% Calm Calm -- 30.38 in1028.8 mb 0.00 in0.0 mm 0.00 in0.0 mm 0.00 in0.0 mm
06:35 PM 26.6°F-3.0°C 20.7°F-6.3°C 78% Calm Calm -- 30.38 in1028.8 mb 0.00 in0.0 mm 0.00 in0.0 mm 0.00 in0.0 mm
06:40 PM 26.6°F-3.0°C 20.7°F-6.3°C 78% Calm Calm -- 30.38 in1028.8 mb 0.00 in0.0 mm 0.00 in0.0 mm 0.00 in0.0 mm
06:45 PM 26.6°F-3.0°C 20.7°F-6.3°C 78% Calm Calm -- 30.38 in1028.8 mb 0.00 in0.0 mm 0.00 in0.0 mm 0.00 in0.0 mm
06:50 PM 26.6°F-3.0°C 20.7°F-6.3°C 78% Calm Calm -- 30.38 in1028.8 mb 0.00 in0.0 mm 0.00 in0.0 mm 0.00 in0.0 mm
06:55 PM 26.6°F-3.0°C 21.0°F-6.1°C 79% Calm Calm -- 30.38 in1028.8 mb 0.00 in0.0 mm 0.00 in0.0 mm 0.00 in0.0 mm
07:00 PM 26.5°F-3.1°C 20.9°F-6.2°C 79% Calm Calm -- 30.38 in1028.8 mb 0.00 in0.0 mm 0.00 in0.0 mm 0.00 in0.0 mm
07:05 PM 26.5°F-3.1°C 20.9°F-6.2°C 79% Calm Calm -- 30.38 in1028.8 mb 0.00 in0.0 mm 0.00 in0.0 mm 0.00 in0.0 mm
07:10 PM 26.4°F-3.1°C 20.8°F-6.2°C 79% Calm Calm -- 30.38 in1028.8 mb 0.00 in0.0 mm 0.00 in0.0 mm 0.00 in0.0 mm
07:15 PM 26.4°F-3.1°C 20.8°F-6.2°C 79% Calm Calm -- 30.38 in1028.8 mb 0.00 in0.0 mm 0.00 in0.0 mm 0.00 in0.0 mm
07:20 PM 26.4°F-3.1°C 20.8°F-6.2°C 79% Calm Calm -- 30.38 in1028.8 mb 0.00 in0.0 mm 0.00 in0.0 mm 0.00 in0.0 mm
07:25 PM 26.4°F-3.1°C 20.8°F-6.2°C 79% Calm Calm -- 30.38 in1028.8 mb 0.00 in0.0 mm 0.00 in0.0 mm 0.00 in0.0 mm
07:30 PM 26.5°F-3.1°C 21.2°F-6.0°C 80% Calm Calm -- 30.38 in1028.8 mb 0.00 in0.0 mm 0.00 in0.0 mm 0.00 in0.0 mm
07:35 PM 26.5°F-3.1°C 21.2°F-6.0°C 80% Calm Calm -- 30.38 in1028.8 mb 0.00 in0.0 mm 0.00 in0.0 mm 0.00 in0.0 mm
07:40 PM 26.5°F-3.1°C 21.2°F-6.0°C 80% Calm Calm -- 30.38 in1028.8 mb 0.00 in0.0 mm 0.00 in0.0 mm 0.00 in0.0 mm
07:45 PM 26.6°F-3.0°C 21.3°F-5.9°C 80% Calm Calm -- 30.38 in1028.8 mb 0.00 in0.0 mm 0.00 in0.0 mm 0.00 in0.0 mm
07:50 PM 26.6°F-3.0°C 21.3°F-5.9°C 80% Calm Calm -- 30.38 in1028.8 mb 0.00 in0.0 mm 0.00 in0.0 mm 0.00 in0.0 mm
07:55 PM 26.6°F-3.0°C 21.3°F-5.9°C 80% Calm Calm -- 30.38 in1028.8 mb 0.00 in0.0 mm 0.00 in0.0 mm 0.00 in0.0 mm
08:00 PM 26.6°F-3.0°C 21.3°F-5.9°C 80% Calm Calm -- 30.39 in1029.1 mb 0.00 in0.0 mm 0.00 in0.0 mm 0.00 in0.0 mm
08:05 PM 26.6°F-3.0°C 21.3°F-5.9°C 80% Calm Calm -- 30.38 in1028.8 mb 0.00 in0.0 mm 0.00 in0.0 mm 0.00 in0.0 mm
08:10 PM 26.6°F-3.0°C 21.3°F-5.9°C 80% Calm Calm -- 30.38 in1028.8 mb 0.00 in0.0 mm 0.00 in0.0 mm 0.00 in0.0 mm
08:15 PM 26.7°F-2.9°C 21.4°F-5.9°C 80% Calm Calm -- 30.38 in1028.8 mb 0.00 in0.0 mm 0.00 in0.0 mm 0.00 in0.0 mm
08:20 PM 26.7°F-2.9°C 21.4°F-5.9°C 80% Calm Calm -- 30.38 in1028.8 mb 0.00 in0.0 mm 0.00 in0.0 mm 0.00 in0.0 mm
08:25 PM 26.7°F-2.9°C 21.4°F-5.9°C 80% Calm Calm -- 30.38 in1028.8 mb 0.00 in0.0 mm 0.00 in0.0 mm 0.00 in0.0 mm
08:30 PM 26.8°F-2.9°C 21.8°F-5.7°C 81% Calm Calm -- 30.38 in1028.8 mb 0.00 in0.0 mm 0.00 in0.0 mm 0.00 in0.0 mm
08:35 PM 26.8°F-2.9°C 21.8°F-5.7°C 81% Calm Calm -- 30.38 in1028.8 mb 0.00 in0.0 mm 0.00 in0.0 mm 0.00 in0.0 mm
08:40 PM 26.7°F-2.9°C 21.7°F-5.7°C 81% Calm Calm -- 30.38 in1028.8 mb 0.00 in0.0 mm 0.00 in0.0 mm 0.00 in0.0 mm
08:45 PM 26.7°F-2.9°C 21.7°F-5.7°C 81% Calm Calm -- 30.38 in1028.8 mb 0.00 in0.0 mm 0.00 in0.0 mm 0.00 in0.0 mm
08:50 PM 26.7°F-2.9°C 21.7°F-5.7°C 81% Calm Calm -- 30.38 in1028.8 mb 0.00 in0.0 mm 0.00 in0.0 mm 0.00 in0.0 mm
08:55 PM 26.6°F-3.0°C 21.6°F-5.8°C 81% Calm Calm -- 30.38 in1028.8 mb 0.00 in0.0 mm 0.00 in0.0 mm 0.00 in0.0 mm
09:00 PM 26.6°F-3.0°C 21.6°F-5.8°C 81% Calm Calm -- 30.38 in1028.8 mb 0.00 in0.0 mm 0.00 in0.0 mm 0.00 in0.0 mm
09:05 PM 26.5°F-3.1°C 21.8°F-5.7°C 82% Calm Calm -- 30.38 in1028.8 mb 0.00 in0.0 mm 0.00 in0.0 mm 0.00 in0.0 mm
09:10 PM 26.5°F-3.1°C 21.8°F-5.7°C 82% Calm Calm -- 30.38 in1028.8 mb 0.00 in0.0 mm 0.00 in0.0 mm 0.00 in0.0 mm
09:15 PM 26.4°F-3.1°C 21.7°F-5.7°C 82% Calm Calm -- 30.38 in1028.8 mb 0.00 in0.0 mm 0.00 in0.0 mm 0.00 in0.0 mm
09:20 PM 26.3°F-3.2°C 21.6°F-5.8°C 82% Calm Calm -- 30.38 in1028.8 mb 0.00 in0.0 mm 0.00 in0.0 mm 0.00 in0.0 mm
09:25 PM 26.0°F-3.3°C 21.6°F-5.8°C 83% Calm Calm -- 30.38 in1028.8 mb 0.00 in0.0 mm 0.00 in0.0 mm 0.00 in0.0 mm
09:30 PM 25.8°F-3.4°C 21.4°F-5.9°C 83% Calm Calm -- 30.38 in1028.8 mb 0.00 in0.0 mm 0.00 in0.0 mm 0.00 in0.0 mm
09:35 PM 25.7°F-3.5°C 21.3°F-5.9°C 83% Calm Calm -- 30.38 in1028.8 mb 0.00 in0.0 mm 0.00 in0.0 mm 0.00 in0.0 mm
09:40 PM 25.6°F-3.6°C 21.2°F-6.0°C 83% Calm Calm -- 30.38 in1028.8 mb 0.00 in0.0 mm 0.00 in0.0 mm 0.00 in0.0 mm
09:45 PM 25.4°F-3.7°C 21.0°F-6.1°C 83% Calm Calm -- 30.38 in1028.8 mb 0.00 in0.0 mm 0.00 in0.0 mm 0.00 in0.0 mm
09:50 PM 25.2°F-3.8°C 20.8°F-6.2°C 83% Calm Calm -- 30.38 in1028.8 mb 0.00 in0.0 mm 0.00 in0.0 mm 0.00 in0.0 mm
09:55 PM 25.1°F-3.8°C 20.7°F-6.3°C 83% Calm Calm -- 30.38 in1028.8 mb 0.00 in0.0 mm 0.00 in0.0 mm 0.00 in0.0 mm
10:00 PM 24.9°F-3.9°C 20.5°F-6.4°C 83% Calm Calm -- 30.38 in1028.8 mb 0.00 in0.0 mm 0.00 in0.0 mm 0.00 in0.0 mm
10:05 PM 24.7°F-4.1°C 20.3°F-6.5°C 83% Calm Calm -- 30.38 in1028.8 mb 0.00 in0.0 mm 0.00 in0.0 mm 0.00 in0.0 mm
10:10 PM 24.5°F-4.2°C 20.1°F-6.6°C 83% Calm Calm -- 30.38 in1028.8 mb 0.00 in0.0 mm 0.00 in0.0 mm 0.00 in0.0 mm
10:15 PM 24.2°F-4.3°C 20.1°F-6.6°C 84% Calm Calm -- 30.38 in1028.8 mb 0.00 in0.0 mm 0.00 in0.0 mm 0.00 in0.0 mm
10:20 PM 24.0°F-4.4°C 19.6°F-6.9°C 83% Calm Calm -- 30.38 in1028.8 mb 0.00 in0.0 mm 0.00 in0.0 mm 0.00 in0.0 mm
10:25 PM 23.7°F-4.6°C 19.6°F-6.9°C 84% Calm Calm -- 30.38 in1028.8 mb 0.00 in0.0 mm 0.00 in0.0 mm 0.00 in0.0 mm
10:30 PM 23.4°F-4.8°C 19.3°F-7.1°C 84% Calm Calm -- 30.38 in1028.8 mb 0.00 in0.0 mm 0.00 in0.0 mm 0.00 in0.0 mm
10:35 PM 23.2°F-4.9°C 19.1°F-7.2°C 84% Calm Calm -- 30.38 in1028.8 mb 0.00 in0.0 mm 0.00 in0.0 mm 0.00 in0.0 mm
10:40 PM 23.0°F-5.0°C 19.2°F-7.1°C 85% Calm Calm -- 30.38 in1028.8 mb 0.00 in0.0 mm 0.00 in0.0 mm 0.00 in0.0 mm
10:45 PM 22.8°F-5.1°C 19.0°F-7.2°C 85% Calm Calm -- 30.38 in1028.8 mb 0.00 in0.0 mm 0.00 in0.0 mm 0.00 in0.0 mm
10:50 PM 22.5°F-5.3°C 18.7°F-7.4°C 85% Calm Calm -- 30.38 in1028.8 mb 0.00 in0.0 mm 0.00 in0.0 mm 0.00 in0.0 mm
10:55 PM 22.3°F-5.4°C 18.8°F-7.3°C 86% Calm Calm -- 30.38 in1028.8 mb 0.00 in0.0 mm 0.00 in0.0 mm 0.00 in0.0 mm
11:00 PM 22.1°F-5.5°C 18.6°F-7.4°C 86% Calm Calm -- 30.38 in1028.8 mb 0.00 in0.0 mm 0.00 in0.0 mm 0.00 in0.0 mm
11:05 PM 21.9°F-5.6°C 18.4°F-7.6°C 86% Calm Calm -- 30.38 in1028.8 mb 0.00 in0.0 mm 0.00 in0.0 mm 0.00 in0.0 mm
11:10 PM 21.7°F-5.7°C 18.2°F-7.7°C 86% Calm Calm -- 30.38 in1028.8 mb 0.00 in0.0 mm 0.00 in0.0 mm 0.00 in0.0 mm
11:15 PM 21.5°F-5.8°C 18.0°F-7.8°C 86% Calm Calm -- 30.38 in1028.8 mb 0.00 in0.0 mm 0.00 in0.0 mm 0.00 in0.0 mm
11:20 PM 21.3°F-5.9°C 18.0°F-7.8°C 87% Calm Calm -- 30.38 in1028.8 mb 0.00 in0.0 mm 0.00 in0.0 mm 0.00 in0.0 mm
11:25 PM 21.2°F-6.0°C 17.9°F-7.8°C 87% Calm Calm -- 30.38 in1028.8 mb 0.00 in0.0 mm 0.00 in0.0 mm 0.00 in0.0 mm
11:30 PM 21.0°F-6.1°C 17.8°F-7.9°C 87% Calm Calm -- 30.38 in1028.8 mb 0.00 in0.0 mm 0.00 in0.0 mm 0.00 in0.0 mm
11:35 PM 20.8°F-6.2°C 17.6°F-8.0°C 87% Calm Calm -- 30.38 in1028.8 mb 0.00 in0.0 mm 0.00 in0.0 mm 0.00 in0.0 mm
11:40 PM 20.7°F-6.3°C 17.5°F-8.1°C 87% Calm Calm -- 30.38 in1028.8 mb 0.00 in0.0 mm 0.00 in0.0 mm 0.00 in0.0 mm
11:45 PM 20.5°F-6.4°C 17.3°F-8.2°C 87% Calm Calm -- 30.39 in1029.1 mb 0.00 in0.0 mm 0.00 in0.0 mm 0.00 in0.0 mm
11:50 PM 20.3°F-6.5°C 17.1°F-8.3°C 87% Calm Calm -- 30.39 in1029.1 mb 0.00 in0.0 mm 0.00 in0.0 mm 0.00 in0.0 mm
11:55 PM 20.2°F-6.6°C 17.0°F-8.3°C 87% Calm Calm -- 30.39 in1029.1 mb 0.00 in0.0 mm 0.00 in0.0 mm 0.00 in0.0 mm